Rms Queen Mary 2 — ZCEF6 — position and weather

sailwx.info

Track history (hours):
 
Tides and Currents Weather Stations Pressure Air Temp Water Temp Dewpoint Dewpoint Depression Visibility Wind Speed Wind Dir Waves Ship Positions

Rms Queen Mary 2

Last reported at 2020-Apr-04 09:00 UTC. Time now 2020-Apr-05 08:16 UTC.
Position S 31°18' E 015°06'.

Length 345 m; draft 10.3 m.

Type: Passenger vessel. MMSI: 310627000.

Wind from 270 at 3 knots

Barometer 1013.9 mb
Air temperature 22.0 ° C
Visibility: greater than 10.8 NM
Dewpoint 15.3 ° C
Water temperature 19.5 ° C

Date/timePositionNaut miles runAvg speedWind from/ knotsBaromVisibWave heightAir tempDewpointWater temp
2020-Apr-04 09:00S 31°18' E 015°06'19623.9 270 / 31013.910.8 22.015.319.5
2020-Apr-04 00:46S 33°51' E 017°32'5423.9
2020-Apr-03 22:29S 34°34' E 018°12'1122.9
2020-Apr-03 21:59S 34°42' E 018°22'1123.3
2020-Apr-03 21:31S 34°47' E 018°35'2323.5
2020-Apr-03 20:31S 34°55' E 019°02'2423.3
2020-Apr-03 19:28S 35°03' E 019°30'22323.6
2020-Apr-03 10:00S 34°36' E 024°00'31414.9 090 / 211019.827.0 23.015.618.4
2020-Apr-02 13:00S 32°06' E 029°30'160 3.2 080 / 151023.910.8 21.012.228.0
2020-Mar-31 11:30S 29°49' E 031°07'0 0.3
2020-Mar-31 11:00S 29°49' E 031°07'1 1.1
2020-Mar-31 10:01S 29°49' E 031°08'1 1.5
2020-Mar-31 09:31S 29°49' E 031°09'5 5.3
2020-Mar-31 08:29S 29°45' E 031°13'0 0.4
2020-Mar-31 07:29S 29°45' E 031°13'0 0.1
2020-Mar-31 06:30S 29°45' E 031°13'0 0.0
2020-Mar-31 04:57S 29°45' E 031°13'0 0.0
2020-Mar-31 04:27S 29°45' E 031°13'0 0.0
2020-Mar-31 03:21S 29°45' E 031°13'0 0.0
2020-Mar-31 00:57S 29°45' E 031°13'0 0.1
2020-Mar-30 23:27S 29°45' E 031°13'0 0.0
2020-Mar-30 21:27S 29°45' E 031°13'0 0.2
2020-Mar-30 21:00S 29°45' E 031°13'0 0.0
2020-Mar-30 17:30S 29°45' E 031°13'0 0.0
2020-Mar-30 16:27S 29°45' E 031°13'0 0.2
2020-Mar-30 14:30S 29°45' E 031°13'5 9.9
2020-Mar-30 13:59S 29°44' E 031°19'4 0.8
2020-Mar-30 08:31S 29°44' E 031°14'0 0.7
2020-Mar-30 08:00S 29°44' E 031°14'0 0.0
2020-Mar-30 05:56S 29°44' E 031°14'0 0.0
2020-Mar-30 05:20S 29°44' E 031°14'0 0.0
2020-Mar-30 04:14S 29°44' E 031°14'0 0.0
2020-Mar-30 01:44S 29°44' E 031°14'0 0.0
2020-Mar-30 01:02S 29°44' E 031°14'0 0.0
2020-Mar-29 22:26S 29°44' E 031°14'0 0.0
2020-Mar-29 21:14S 29°44' E 031°14'0 0.0
2020-Mar-29 20:20S 29°44' E 031°14'0 0.0
2020-Mar-29 19:26S 29°44' E 031°14'0 0.1
2020-Mar-29 18:50S 29°44' E 031°14'0 0.0
2020-Mar-29 16:08S 29°44' E 031°14'0 0.1
2020-Mar-29 14:08S 29°44' E 031°13'0 0.0
2020-Mar-29 13:20S 29°44' E 031°13'0 0.1
2020-Mar-29 12:56S 29°44' E 031°13'0 0.1
2020-Mar-29 12:14S 29°44' E 031°13'0 0.0
2020-Mar-29 11:19S 29°44' E 031°13'0 0.0
2020-Mar-29 08:49S 29°44' E 031°13'1 0.0
2020-Mar-28 08:29S 29°44' E 031°15'1 0.4
2020-Mar-28 06:28S 29°44' E 031°14'0 0.1
2020-Mar-28 05:55S 29°44' E 031°14'0 0.1
2020-Mar-28 02:52S 29°44' E 031°14'0 0.1
2020-Mar-28 02:07S 29°44' E 031°14'0 0.0
2020-Mar-28 01:58S 29°44' E 031°14'0 0.0
2020-Mar-28 00:58S 29°44' E 031°14'0 0.0
2020-Mar-27 22:28S 29°44' E 031°14'0 0.0
2020-Mar-27 21:25S 29°44' E 031°14'0 0.0
2020-Mar-27 16:52S 29°44' E 031°14'0 0.0
2020-Mar-27 16:13S 29°44' E 031°14'0 0.0
2020-Mar-27 15:52S 29°44' E 031°14'0 0.0
2020-Mar-27 14:58S 29°44' E 031°14'0 0.0
2020-Mar-27 13:28S 29°44' E 031°14'0 0.0
2020-Mar-27 12:25S 29°44' E 031°14'0 0.0
2020-Mar-27 12:01S 29°44' E 031°14'0 0.0
2020-Mar-27 10:30S 29°44' E 031°14'0 0.0
2020-Mar-27 09:57S 29°44' E 031°14'0 0.0
2020-Mar-27 08:00S 29°44' E 031°14'0 0.0
2020-Mar-27 05:57S 29°44' E 031°14'7 2.8
2020-Mar-27 03:31S 29°47' E 031°21'  
Track history (hours):
 
Tides and Currents Weather Stations Pressure Air Temp Water Temp Dewpoint Dewpoint Depression Visibility Wind Speed Wind Dir Waves Ship Positions

Rms Queen Mary 2

Last reported at 2020-Apr-04 09:00 UTC. Time now 2020-Apr-05 08:16 UTC.
Position S 31°18' E 015°06'.

Length 345 m; draft 10.3 m.

Type: Passenger vessel. MMSI: 310627000.

Wind from 270 at 3 knots

Barometer 1013.9 mb
Air temperature 22.0 ° C
Visibility: greater than 10.8 NM
Dewpoint 15.3 ° C
Water temperature 19.5 ° C

Date/timePositionNaut miles runAvg speedWind from/ knotsBaromVisibWave heightAir tempDewpointWater temp
2020-Apr-04 09:00S 31°18' E 015°06'19623.9 270 / 31013.910.8 22.015.319.5
2020-Apr-04 00:46S 33°51' E 017°32'5423.9
2020-Apr-03 22:29S 34°34' E 018°12'1122.9
2020-Apr-03 21:59S 34°42' E 018°22'1123.3
2020-Apr-03 21:31S 34°47' E 018°35'2323.5
2020-Apr-03 20:31S 34°55' E 019°02'2423.3
2020-Apr-03 19:28S 35°03' E 019°30'22323.6
2020-Apr-03 10:00S 34°36' E 024°00'31414.9 090 / 211019.827.0 23.015.618.4
2020-Apr-02 13:00S 32°06' E 029°30'160 3.2 080 / 151023.910.8 21.012.228.0
2020-Mar-31 11:30S 29°49' E 031°07'0 0.3
2020-Mar-31 11:00S 29°49' E 031°07'1 1.1
2020-Mar-31 10:01S 29°49' E 031°08'1 1.5
2020-Mar-31 09:31S 29°49' E 031°09'5 5.3
2020-Mar-31 08:29S 29°45' E 031°13'0 0.4
2020-Mar-31 07:29S 29°45' E 031°13'0 0.1
2020-Mar-31 06:30S 29°45' E 031°13'0 0.0
2020-Mar-31 04:57S 29°45' E 031°13'0 0.0
2020-Mar-31 04:27S 29°45' E 031°13'0 0.0
2020-Mar-31 03:21S 29°45' E 031°13'0 0.0
2020-Mar-31 00:57S 29°45' E 031°13'0 0.1
2020-Mar-30 23:27S 29°45' E 031°13'0 0.0
2020-Mar-30 21:27S 29°45' E 031°13'0 0.2
2020-Mar-30 21:00S 29°45' E 031°13'0 0.0
2020-Mar-30 17:30S 29°45' E 031°13'0 0.0
2020-Mar-30 16:27S 29°45' E 031°13'0 0.2
2020-Mar-30 14:30S 29°45' E 031°13'5 9.9
2020-Mar-30 13:59S 29°44' E 031°19'4 0.8
2020-Mar-30 08:31S 29°44' E 031°14'0 0.7
2020-Mar-30 08:00S 29°44' E 031°14'0 0.0
2020-Mar-30 05:56S 29°44' E 031°14'0 0.0
2020-Mar-30 05:20S 29°44' E 031°14'0 0.0
2020-Mar-30 04:14S 29°44' E 031°14'0 0.0
2020-Mar-30 01:44S 29°44' E 031°14'0 0.0
2020-Mar-30 01:02S 29°44' E 031°14'0 0.0
2020-Mar-29 22:26S 29°44' E 031°14'0 0.0
2020-Mar-29 21:14S 29°44' E 031°14'0 0.0
2020-Mar-29 20:20S 29°44' E 031°14'0 0.0
2020-Mar-29 19:26S 29°44' E 031°14'0 0.1
2020-Mar-29 18:50S 29°44' E 031°14'0 0.0
2020-Mar-29 16:08S 29°44' E 031°14'0 0.1
2020-Mar-29 14:08S 29°44' E 031°13'0 0.0
2020-Mar-29 13:20S 29°44' E 031°13'0 0.1
2020-Mar-29 12:56S 29°44' E 031°13'0 0.1
2020-Mar-29 12:14S 29°44' E 031°13'0 0.0
2020-Mar-29 11:19S 29°44' E 031°13'0 0.0
2020-Mar-29 08:49S 29°44' E 031°13'1 0.0
2020-Mar-28 08:29S 29°44' E 031°15'1 0.4
2020-Mar-28 06:28S 29°44' E 031°14'0 0.1
2020-Mar-28 05:55S 29°44' E 031°14'0 0.1
2020-Mar-28 02:52S 29°44' E 031°14'0 0.1
2020-Mar-28 02:07S 29°44' E 031°14'0 0.0
2020-Mar-28 01:58S 29°44' E 031°14'0 0.0
2020-Mar-28 00:58S 29°44' E 031°14'0 0.0
2020-Mar-27 22:28S 29°44' E 031°14'0 0.0
2020-Mar-27 21:25S 29°44' E 031°14'0 0.0
2020-Mar-27 16:52S 29°44' E 031°14'0 0.0
2020-Mar-27 16:13S 29°44' E 031°14'0 0.0
2020-Mar-27 15:52S 29°44' E 031°14'0 0.0
2020-Mar-27 14:58S 29°44' E 031°14'0 0.0
2020-Mar-27 13:28S 29°44' E 031°14'0 0.0
2020-Mar-27 12:25S 29°44' E 031°14'0 0.0
2020-Mar-27 12:01S 29°44' E 031°14'0 0.0
2020-Mar-27 10:30S 29°44' E 031°14'0 0.0
2020-Mar-27 09:57S 29°44' E 031°14'0 0.0
2020-Mar-27 08:00S 29°44' E 031°14'0 0.0
2020-Mar-27 05:57S 29°44' E 031°14'7 2.8
2020-Mar-27 03:31S 29°47' E 031°21'  

Dump ship's entire track history